Time;durP1;ratioP1;P1;durP2;ratioP2;P2;SDS_P1;SDS_P2;PMS_P1;PMS_P2;Temp;Humidity;BMP_temperature;BMP_pressure;BME280_temperature;BME280_humidity;BME280_pressure;Samples;Min_cycle;Max_cycle;Signal;HPM_P1;HPM_P2
2023/03/08 00:00:09;;;;;;;18.30;9.52;;;;;;;-0.30;84.26;98845.47;10535990;28;20059;-80
2023/03/08 00:05:12;;;;;;;20.27;11.27;;;;;;;-0.29;84.36;98841.03;10524764;28;20458;-80
2023/03/08 00:10:17;;;;;;;18.85;9.93;;;;;;;-0.22;84.18;98846.75;10529936;28;20047;-81
2023/03/08 00:15:20;;;;;;;12.50;6.75;;;;;;;-0.42;84.36;98862.00;10527709;28;20064;-79
2023/03/08 00:20:29;;;;;;;13.15;7.43;;;;;;;-0.75;85.35;98864.88;10540871;28;20039;-80
2023/03/08 00:26:02;;;;;;;13.38;8.38;;;;;;;-0.66;83.86;98866.94;10539972;28;20134;-79
2023/03/08 00:32:35;;;;;;;17.17;9.38;;;;;;;-0.69;83.30;98867.13;10527842;28;20104;-80
2023/03/08 00:39:25;;;;;;;17.48;8.80;;;;;;;-0.44;83.39;98874.44;10534416;28;20064;-80
2023/03/08 00:52:55;;;;;;;18.50;9.75;;;;;;;-0.76;84.30;98865.81;10536202;28;20503;-80
2023/03/08 00:57:58;;;;;;;15.77;9.30;;;;;;;-0.60;83.78;98869.25;10529883;28;20045;-80
2023/03/08 01:03:01;;;;;;;19.85;9.75;;;;;;;-0.41;83.40;98866.38;10531956;28;20044;-79
2023/03/08 01:08:06;;;;;;;18.70;10.55;;;;;;;-0.50;83.05;98864.25;10546441;28;20066;-79
2023/03/08 01:13:09;;;;;;;17.60;10.07;;;;;;;-0.28;82.43;98862.03;10556108;28;20044;-80
2023/03/08 01:18:12;;;;;;;22.13;9.73;;;;;;;-0.29;82.06;98860.34;10543983;28;20131;-79
2023/03/08 01:23:17;;;;;;;19.25;9.85;;;;;;;-0.16;81.90;98860.44;10545668;28;20052;-79
2023/03/08 01:28:19;;;;;;;15.05;8.75;;;;;;;-0.39;82.72;98856.56;10551027;28;20058;-79
2023/03/08 01:33:23;;;;;;;15.00;8.57;;;;;;;-0.21;81.82;98859.03;10565123;28;20045;-79
2023/03/08 01:38:28;;;;;;;18.35;9.10;;;;;;;-0.50;81.96;98849.28;10541973;28;20044;-78
2023/03/08 01:43:32;;;;;;;20.02;9.77;;;;;;;-0.22;81.55;98837.09;10548660;28;20054;-80
2023/03/08 01:48:40;;;;;;;17.15;8.77;;;;;;;-0.25;81.59;98839.03;10552035;28;20046;-80
2023/03/08 01:53:48;;;;;;;16.25;9.30;;;;;;;-0.15;81.40;98841.03;10534469;28;20369;-78
2023/03/08 01:58:52;;;;;;;17.02;9.93;;;;;;;-0.20;81.80;98835.19;10564967;28;20124;-81
2023/03/08 02:03:55;;;;;;;16.58;8.82;;;;;;;-0.34;81.87;98840.44;10555984;28;20109;-80
2023/03/08 02:09:03;;;;;;;13.27;7.63;;;;;;;-0.16;81.26;98827.94;10557250;28;20040;-80
2023/03/08 02:14:06;;;;;;;11.40;6.90;;;;;;;-0.40;81.17;98825.00;10553979;28;20020;-80
2023/03/08 02:19:17;;;;;;;5.60;3.53;;;;;;;-0.81;81.23;98823.06;10564044;28;20055;-80
2023/03/08 02:24:24;;;;;;;8.60;5.82;;;;;;;-0.68;79.93;98810.84;10535807;28;20052;-81
2023/03/08 02:29:27;;;;;;;9.02;5.15;;;;;;;-0.40;78.99;98812.66;10557424;28;20055;-79
2023/03/08 02:34:30;;;;;;;9.15;5.07;;;;;;;-0.45;79.62;98813.88;10548189;28;20107;-81
2023/03/08 02:39:35;;;;;;;7.95;4.85;;;;;;;-0.56;79.67;98803.97;10547352;28;20086;-81
2023/03/08 02:44:37;;;;;;;9.07;5.10;;;;;;;-0.51;80.17;98802.75;10540108;28;20047;-82
2023/03/08 02:49:40;;;;;;;8.82;5.82;;;;;;;-0.44;80.08;98799.72;10542732;28;20045;-80
2023/03/08 02:54:46;;;;;;;10.88;6.75;;;;;;;-0.33;79.78;98792.88;10533244;28;20044;-81
2023/03/08 02:59:49;;;;;;;12.65;6.80;;;;;;;-0.23;79.70;98792.31;10559409;28;20036;-81
2023/03/08 03:04:52;;;;;;;16.13;8.30;;;;;;;-0.25;80.48;98794.19;10561793;28;20048;-81
2023/03/08 03:09:56;;;;;;;14.15;7.25;;;;;;;-0.63;80.52;98785.03;10566478;28;20071;-81
2023/03/08 03:15:01;;;;;;;16.90;9.40;;;;;;;-0.54;80.76;98770.44;10549560;28;20105;-81
2023/03/08 03:20:05;;;;;;;18.77;9.27;;;;;;;-0.33;80.28;98776.19;10564519;28;20039;-79
2023/03/08 03:25:09;;;;;;;16.90;8.55;;;;;;;-0.52;80.30;98774.69;10552342;28;20047;-80
2023/03/08 03:30:13;;;;;;;15.35;7.65;;;;;;;-0.81;80.34;98768.53;10562618;28;20040;-81
2023/03/08 03:35:16;;;;;;;14.25;8.27;;;;;;;-0.50;79.50;98774.56;10547575;28;20417;-81
2023/03/08 03:40:20;;;;;;;14.93;7.90;;;;;;;-0.56;79.35;98774.97;10569639;28;20054;-81
2023/03/08 03:45:29;;;;;;;10.70;5.05;;;;;;;-1.02;80.39;98790.88;10536794;28;20044;-79
2023/03/08 03:50:32;;;;;;;17.58;9.93;;;;;;;-0.57;79.68;98784.66;10563752;28;20041;-82
2023/03/08 03:55:42;;;;;;;19.00;10.13;;;;;;;-0.61;79.53;98795.47;10552066;28;20021;-80
2023/03/08 04:00:45;;;;;;;22.08;11.40;;;;;;;-0.57;79.10;98789.94;10553753;28;20052;-81
2023/03/08 04:06:05;;;;;;;21.00;9.77;;;;;;;-0.57;79.69;98789.09;10566146;28;20119;-81
2023/03/08 04:11:13;;;;;;;19.60;11.02;;;;;;;-0.84;79.50;98796.88;10562110;28;20505;-80
2023/03/08 04:16:18;;;;;;;24.05;12.27;;;;;;;-0.56;79.07;98786.34;10555497;28;20032;-80
2023/03/08 04:21:22;;;;;;;28.33;12.77;;;;;;;-0.38;78.39;98788.81;10546317;28;20495;-81
2023/03/08 04:26:28;;;;;;;25.70;11.25;;;;;;;-0.51;78.79;98783.44;10534797;23;20531;-82
2023/03/08 04:31:33;;;;;;;21.48;10.25;;;;;;;-0.75;79.08;98778.69;10518575;28;20054;-80
2023/03/08 04:36:40;;;;;;;27.55;14.07;;;;;;;-0.76;79.48;98782.28;10501645;28;20032;-82
2023/03/08 04:41:45;;;;;;;25.40;13.57;;;;;;;-0.90;80.07;98787.53;10479971;28;20079;-82
2023/03/08 04:46:57;;;;;;;31.67;14.93;;;;;;;-0.82;79.49;98779.19;10498871;28;20103;-81
2023/03/08 04:52:14;;;;;;;34.88;18.48;;;;;;;-0.93;79.53;98766.63;10504553;28;20079;-81
2023/03/08 04:57:20;;;;;;;23.88;12.18;;;;;;;-1.06;80.31;98765.66;10488271;28;20049;-82
2023/03/08 05:02:25;;;;;;;35.72;16.35;;;;;;;-0.70;79.23;98757.34;10498773;28;20099;-82
2023/03/08 05:07:28;;;;;;;37.83;17.35;;;;;;;-0.51;79.11;98738.59;10507987;28;20084;-82
2023/03/08 05:12:34;;;;;;;37.20;17.77;;;;;;;-0.63;79.41;98728.78;10513701;28;20048;-82
2023/03/08 05:17:39;;;;;;;36.58;17.55;;;;;;;-0.73;79.72;98739.91;10491393;28;20530;-81
2023/03/08 05:22:42;;;;;;;36.08;18.42;;;;;;;-0.64;79.46;98738.50;10483853;28;20104;-81
2023/03/08 05:28:04;;;;;;;38.45;18.27;;;;;;;-0.67;79.38;98740.47;10497669;28;20049;-81
2023/03/08 05:33:07;;;;;;;39.38;19.17;;;;;;;-0.67;79.25;98735.22;10493321;28;20043;-81
2023/03/08 05:38:10;;;;;;;41.05;19.65;;;;;;;-0.77;79.47;98727.00;10491832;28;20064;-81
2023/03/08 05:43:15;;;;;;;43.47;20.98;;;;;;;-0.46;79.07;98727.78;10506591;28;20059;-81
2023/03/08 05:48:18;;;;;;;49.08;20.38;;;;;;;-0.36;79.11;98713.88;10486298;28;20503;-80
2023/03/08 05:53:22;;;;;;;46.30;20.45;;;;;;;-0.43;78.87;98709.97;10472267;28;20041;-79
2023/03/08 05:58:26;;;;;;;50.05;23.40;;;;;;;-0.37;79.03;98704.28;10470201;28;20112;-80
2023/03/08 06:03:29;;;;;;;48.60;20.90;;;;;;;-0.28;79.29;98711.63;10492174;28;20639;-79
2023/03/08 06:08:32;;;;;;;51.35;21.70;;;;;;;-0.28;78.82;98705.50;10496195;28;20196;-79
2023/03/08 06:13:37;;;;;;;55.95;23.75;;;;;;;-0.19;79.76;98689.09;10497969;28;20384;-80
2023/03/08 06:18:41;;;;;;;60.25;24.42;;;;;;;-0.18;79.99;98682.03;10506596;28;20482;-80
2023/03/08 06:23:47;;;;;;;59.47;25.15;;;;;;;-0.17;79.92;98681.91;10507548;28;20142;-79
2023/03/08 06:28:51;;;;;;;56.05;24.80;;;;;;;-0.10;80.73;98671.81;10497036;28;20085;-79
2023/03/08 06:33:55;;;;;;;58.28;26.25;;;;;;;-0.02;81.03;98664.25;10511807;28;20123;-81
2023/03/08 06:39:01;;;;;;;64.20;27.35;;;;;;;-0.04;80.53;98667.94;10501104;28;20041;-81
2023/03/08 06:44:05;;;;;;;64.07;25.90;;;;;;;-0.07;80.08;98671.63;10517461;28;20115;-81
2023/03/08 06:49:08;;;;;;;67.82;27.65;;;;;;;-0.03;80.35;98661.69;10511236;28;20036;-81
2023/03/08 06:54:16;;;;;;;60.20;27.70;;;;;;;0.06;81.03;98661.97;10480667;28;20060;-81
2023/03/08 06:59:22;;;;;;;60.63;27.83;;;;;;;0.08;81.06;98656.56;10475700;28;20110;-80
2023/03/08 07:04:25;;;;;;;69.15;28.85;;;;;;;0.09;80.24;98638.00;10506112;28;20045;-81
2023/03/08 07:09:28;;;;;;;61.85;28.08;;;;;;;0.15;80.20;98627.03;10507594;28;20438;-80
2023/03/08 07:14:32;;;;;;;16.05;5.85;;;;;;;0.23;80.76;98625.69;10510603;28;20051;-79
2023/03/08 07:19:35;;;;;;;138.05;36.75;;;;;;;0.60;80.22;98611.72;10519188;28;20071;-81
2023/03/08 07:24:38;;;;;;;113.35;33.20;;;;;;;0.72;79.84;98617.09;10524378;28;20052;-80
2023/03/08 07:29:42;;;;;;;56.22;27.40;;;;;;;0.85;79.39;98615.31;10458504;28;20181;-81
2023/03/08 07:34:45;;;;;;;41.15;22.50;;;;;;;0.97;79.62;98606.50;10458410;28;20051;-80
2023/03/08 07:39:48;;;;;;;47.10;24.17;;;;;;;1.01;78.66;98613.25;10465709;28;20067;-80
2023/03/08 07:44:52;;;;;;;53.00;25.73;;;;;;;0.89;78.45;98616.78;10468817;28;20112;-81
2023/03/08 07:49:55;;;;;;;56.05;27.45;;;;;;;0.85;78.79;98602.09;10474707;28;20054;-82
2023/03/08 07:54:58;;;;;;;60.30;28.42;;;;;;;0.86;78.44;98598.50;10471681;28;20048;-82
2023/03/08 08:00:06;;;;;;;61.40;27.80;;;;;;;0.86;78.71;98603.78;10467251;28;20059;-82
2023/03/08 08:05:13;;;;;;;58.63;27.42;;;;;;;0.98;79.09;98602.06;10470889;28;20056;-83
2023/03/08 08:10:17;;;;;;;62.47;28.10;;;;;;;1.04;79.07;98597.22;10458637;28;20048;-82
2023/03/08 08:15:24;;;;;;;60.50;27.48;;;;;;;1.09;79.76;98598.69;10459611;28;20053;-82
2023/03/08 08:20:27;;;;;;;58.22;27.98;;;;;;;1.04;78.52;98591.94;10442247;28;20433;-82
2023/03/08 08:25:30;;;;;;;57.13;27.48;;;;;;;1.15;78.88;98595.59;10449022;28;20118;-81
2023/03/08 08:30:34;;;;;;;63.60;27.95;;;;;;;1.24;78.08;98584.38;10477847;28;20045;-80
2023/03/08 08:35:39;;;;;;;59.92;27.48;;;;;;;1.26;78.49;98585.97;10450631;28;20044;-81
2023/03/08 08:40:45;;;;;;;60.80;27.60;;;;;;;1.28;78.27;98577.91;10453721;28;20491;-81
2023/03/08 08:45:54;;;;;;;50.40;25.48;;;;;;;1.20;77.91;98561.72;10465099;28;20629;-81
2023/03/08 08:50:58;;;;;;;50.60;26.55;;;;;;;1.38;77.70;98567.53;10447444;28;20197;-81
2023/03/08 08:56:10;;;;;;;50.17;24.98;;;;;;;1.53;77.73;98560.25;10437858;28;21118;-80
2023/03/08 09:01:31;;;;;;;55.30;25.95;;;;;;;1.53;77.52;98541.75;10446521;28;20044;-81
2023/03/08 09:06:34;;;;;;;60.35;28.58;;;;;;;1.25;77.02;98535.81;10461712;28;20503;-82
2023/03/08 09:11:37;;;;;;;52.53;24.23;;;;;;;1.39;77.33;98535.66;10460532;28;20068;-82
2023/03/08 09:16:57;;;;;;;50.22;25.42;;;;;;;1.42;76.88;98524.84;10441249;28;20063;-82
2023/03/08 09:22:00;;;;;;;51.17;24.83;;;;;;;1.37;76.85;98518.19;10473889;28;20083;-82
2023/03/08 09:27:04;;;;;;;46.47;22.45;;;;;;;1.27;76.37;98518.88;10440733;28;20076;-84
2023/03/08 09:32:09;;;;;;;50.38;25.73;;;;;;;1.40;77.01;98500.31;10458363;28;20071;-83
2023/03/08 09:37:12;;;;;;;51.60;26.17;;;;;;;1.60;76.99;98501.50;10474524;28;20045;-82
2023/03/08 09:42:22;;;;;;;47.03;24.10;;;;;;;1.80;77.22;98489.41;10483276;28;20063;-82
2023/03/08 09:47:47;;;;;;;47.17;23.05;;;;;;;1.62;76.91;98482.84;10477952;28;20838;-82
2023/03/08 09:52:55;;;;;;;49.88;23.95;;;;;;;1.54;77.48;98474.63;10448915;28;20044;-82
2023/03/08 09:58:01;;;;;;;52.63;25.83;;;;;;;1.57;78.13;98467.31;10487523;28;21172;-82
2023/03/08 10:03:24;;;;;;;51.60;24.25;;;;;;;1.64;78.26;98462.41;10457994;28;20064;-82
2023/03/08 10:08:34;;;;;;;41.70;22.13;;;;;;;1.64;78.05;98460.59;10483259;28;20699;-82
2023/03/08 10:13:39;;;;;;;42.58;21.55;;;;;;;1.53;77.96;98463.19;10506029;28;20060;-82
2023/03/08 10:18:49;;;;;;;42.10;19.67;;;;;;;1.91;78.27;98448.88;10449038;28;20092;-83
2023/03/08 10:23:58;;;;;;;32.85;16.70;;;;;;;1.79;76.23;98445.38;10457655;28;21160;-83
2023/03/08 10:29:01;;;;;;;31.60;16.42;;;;;;;1.78;76.56;98446.31;10470828;28;20699;-82
2023/03/08 10:34:12;;;;;;;22.98;11.48;;;;;;;1.24;75.96;98444.19;10484059;28;20047;-83
2023/03/08 10:39:16;;;;;;;18.85;10.82;;;;;;;1.78;76.67;98434.88;10450516;28;20049;-82
2023/03/08 10:44:32;;;;;;;19.73;10.80;;;;;;;1.75;75.78;98428.03;10472134;28;20083;-82
2023/03/08 10:49:36;;;;;;;20.55;12.05;;;;;;;1.82;76.81;98433.72;10475264;28;20048;-82
2023/03/08 10:54:39;;;;;;;17.98;10.75;;;;;;;1.81;75.88;98438.16;10462061;28;20084;-82
2023/03/08 10:59:49;;;;;;;20.75;11.13;;;;;;;2.00;76.31;98424.34;10454623;28;20101;-82
2023/03/08 11:04:57;;;;;;;16.92;10.43;;;;;;;2.21;75.81;98413.91;10473915;28;20064;-83
2023/03/08 11:10:18;;;;;;;16.90;9.40;;;;;;;2.07;74.65;98414.97;10485268;28;20075;-83
2023/03/08 11:15:21;;;;;;;15.13;8.65;;;;;;;2.32;75.98;98421.84;10486966;28;20118;-83
2023/03/08 11:20:31;;;;;;;11.32;6.55;;;;;;;2.74;74.18;98408.00;10459511;28;20730;-83
2023/03/08 11:25:42;;;;;;;8.95;4.43;;;;;;;2.63;72.57;98415.97;10467734;28;20075;-82
2023/03/08 11:30:55;;;;;;;7.90;5.72;;;;;;;1.89;75.79;98409.31;10482264;28;21242;-83
2023/03/08 11:36:05;;;;;;;6.55;4.60;;;;;;;2.53;75.60;98399.94;10461764;28;20043;-81
2023/03/08 11:41:23;;;;;;;5.82;3.85;;;;;;;2.82;73.44;98395.81;10476132;28;20043;-82
2023/03/08 11:46:32;;;;;;;7.47;4.95;;;;;;;3.23;75.12;98381.00;10445415;28;20048;-82
2023/03/08 11:51:44;;;;;;;8.82;5.90;;;;;;;2.91;74.27;98388.94;10467343;28;20048;-81
2023/03/08 11:56:53;;;;;;;5.72;3.45;;;;;;;3.31;73.66;98384.84;10479830;28;20093;-81
2023/03/08 12:02:01;;;;;;;4.60;2.70;;;;;;;3.05;72.18;98382.53;10475685;28;20538;-81
2023/03/08 12:07:12;;;;;;;5.90;3.97;;;;;;;2.62;73.81;98388.63;10459406;28;20055;-81
2023/03/08 12:12:21;;;;;;;3.20;2.88;;;;;;;1.62;73.77;98388.44;10482053;28;20051;-81
2023/03/08 12:17:28;;;;;;;3.28;2.72;;;;;;;1.79;74.10;98375.72;10448698;28;20073;-80
2023/03/08 12:22:45;;;;;;;4.10;2.55;;;;;;;1.88;73.52;98352.00;10470674;28;20041;-81
2023/03/08 12:27:53;;;;;;;6.25;3.88;;;;;;;2.08;74.33;98357.53;10474588;28;20811;-80
2023/03/08 12:32:58;;;;;;;7.10;3.97;;;;;;;2.12;75.06;98354.53;10480896;28;20055;-80
2023/03/08 12:38:06;;;;;;;7.13;5.15;;;;;;;1.99;75.32;98361.75;10471645;28;20044;-80
2023/03/08 12:43:12;;;;;;;6.85;4.18;;;;;;;1.94;74.69;98358.63;10467315;28;20182;-80
2023/03/08 12:48:22;;;;;;;6.78;3.47;;;;;;;1.82;74.60;98344.53;10445471;28;20048;-80
2023/03/08 12:53:33;;;;;;;3.63;2.75;;;;;;;1.90;73.91;98334.19;10458533;28;20052;-80
2023/03/08 12:58:39;;;;;;;5.35;3.20;;;;;;;1.87;74.26;98315.91;10471281;28;20059;-81
2023/03/08 13:03:42;;;;;;;6.13;3.17;;;;;;;2.04;74.17;98321.69;10464049;28;21771;-80
2023/03/08 13:08:52;;;;;;;5.93;3.38;;;;;;;2.01;75.53;98336.00;10438774;28;20128;-81
2023/03/08 13:14:00;;;;;;;6.22;3.92;;;;;;;2.05;75.11;98333.97;10466395;28;20082;-79
2023/03/08 13:19:17;;;;;;;7.55;3.65;;;;;;;1.92;74.62;98331.41;10470334;28;20071;-80
2023/03/08 13:24:35;;;;;;;5.25;3.42;;;;;;;2.19;75.34;98312.50;10461279;28;20106;-79
2023/03/08 13:29:39;;;;;;;5.60;2.90;;;;;;;2.00;72.74;98310.47;10464487;28;20055;-80
2023/03/08 13:34:44;;;;;;;4.10;2.58;;;;;;;2.03;73.57;98322.63;10483372;28;20048;-81
2023/03/08 13:39:52;;;;;;;5.18;2.85;;;;;;;2.00;72.60;98321.06;10455833;28;21280;-81
2023/03/08 13:45:08;;;;;;;2.58;2.25;;;;;;;1.84;72.00;98316.16;10471251;28;20040;-79
2023/03/08 13:50:18;;;;;;;6.57;2.55;;;;;;;1.76;71.60;98318.56;10448751;28;20094;-79
2023/03/08 13:55:29;;;;;;;3.38;2.25;;;;;;;1.77;72.39;98320.22;10480625;28;20423;-80
2023/03/08 14:00:34;;;;;;;3.27;2.33;;;;;;;1.82;72.44;98323.38;10485965;28;20083;-80
2023/03/08 14:05:42;;;;;;;3.75;2.85;;;;;;;1.94;73.29;98305.66;10482619;28;20047;-80
2023/03/08 14:10:49;;;;;;;4.22;3.00;;;;;;;1.91;73.60;98284.72;10484085;28;20048;-80
2023/03/08 14:15:55;;;;;;;3.85;2.83;;;;;;;1.92;73.00;98270.53;10490310;28;20113;-81
2023/03/08 14:21:04;;;;;;;4.82;2.80;;;;;;;2.02;74.02;98260.88;10462654;28;20652;-81
2023/03/08 14:31:37;;;;;;;7.18;3.03;;;;;;;2.20;72.62;98253.28;10478472;27;20488;-80
2023/03/08 14:36:48;;;;;;;4.10;3.30;;;;;;;2.01;72.73;98245.16;10465750;28;20040;-80
2023/03/08 14:41:51;;;;;;;6.15;4.28;;;;;;;1.94;73.29;98253.56;10469033;28;20608;-79
2023/03/08 14:46:58;;;;;;;4.50;3.65;;;;;;;1.94;73.98;98232.38;10458083;28;20498;-80
2023/03/08 14:52:01;;;;;;;5.10;3.60;;;;;;;1.96;74.21;98224.31;10453099;28;20053;-80
2023/03/08 14:57:17;;;;;;;4.65;3.65;;;;;;;2.02;75.15;98218.53;10464897;28;20052;-80
2023/03/08 15:02:22;;;;;;;6.25;3.35;;;;;;;1.94;74.46;98211.19;10459502;28;20607;-80
2023/03/08 15:07:34;;;;;;;3.55;2.97;;;;;;;1.80;73.08;98207.97;10486371;28;20071;-80
2023/03/08 15:12:37;;;;;;;4.45;3.22;;;;;;;1.92;73.78;98189.31;10492167;28;20056;-79
2023/03/08 15:17:41;;;;;;;6.07;3.90;;;;;;;1.88;74.07;98176.44;10475815;28;20087;-80
2023/03/08 15:22:47;;;;;;;5.43;3.28;;;;;;;1.86;74.03;98178.34;10454821;28;20121;-80
2023/03/08 15:27:49;;;;;;;5.93;4.00;;;;;;;1.79;73.71;98190.41;10471066;28;20052;-79
2023/03/08 15:32:54;;;;;;;6.20;4.00;;;;;;;1.79;74.26;98193.91;10468292;28;20407;-79
2023/03/08 15:38:01;;;;;;;5.70;3.67;;;;;;;1.60;74.29;98217.50;10461887;28;20163;-79
2023/03/08 15:43:03;;;;;;;4.45;3.15;;;;;;;1.57;74.87;98225.66;10440716;28;20499;-80
2023/03/08 15:48:12;;;;;;;7.22;4.20;;;;;;;1.52;75.55;98225.19;10430019;28;20052;-80
2023/03/08 15:53:15;;;;;;;6.15;4.43;;;;;;;1.56;76.00;98230.09;10453810;28;20055;-79
2023/03/08 15:58:36;;;;;;;6.93;4.63;;;;;;;1.56;77.33;98234.56;10443104;28;20056;-80
2023/03/08 16:03:40;;;;;;;7.95;4.57;;;;;;;1.41;77.55;98236.59;10442019;28;20076;-79
2023/03/08 16:08:43;;;;;;;5.90;4.85;;;;;;;1.17;77.85;98215.53;10429414;28;20071;-80
2023/03/08 16:13:48;;;;;;;6.85;5.32;;;;;;;1.01;78.44;98213.19;10422115;28;20581;-79
2023/03/08 16:18:52;;;;;;;8.02;5.20;;;;;;;0.83;78.98;98215.44;10428376;28;20044;-80
2023/03/08 16:23:56;;;;;;;8.02;5.40;;;;;;;0.77;79.51;98214.13;10446098;28;20048;-79
2023/03/08 16:28:59;;;;;;;11.27;5.63;;;;;;;0.76;80.09;98222.97;10447227;28;20045;-78
2023/03/08 16:34:04;;;;;;;10.52;5.50;;;;;;;0.72;80.28;98218.06;10436982;28;20483;-77
2023/03/08 16:39:08;;;;;;;10.60;5.90;;;;;;;0.71;80.97;98229.56;10424348;28;20053;-80
2023/03/08 16:44:19;;;;;;;14.35;7.30;;;;;;;0.73;81.14;98223.22;10431729;28;20040;-80
2023/03/08 16:49:27;;;;;;;13.77;8.20;;;;;;;0.68;81.43;98235.09;10439422;28;20059;-79
2023/03/08 16:54:29;;;;;;;14.38;8.30;;;;;;;0.65;81.51;98233.50;10451091;28;20041;-79
2023/03/08 16:59:32;;;;;;;16.48;9.07;;;;;;;0.64;81.70;98239.75;10447371;28;20665;-80
2023/03/08 17:04:36;;;;;;;15.25;7.75;;;;;;;0.60;81.74;98240.94;10442742;28;20490;-80
2023/03/08 17:09:39;;;;;;;14.30;8.68;;;;;;;0.56;81.86;98242.13;10444844;28;20048;-81
2023/03/08 17:14:43;;;;;;;16.33;9.15;;;;;;;0.55;82.05;98236.00;10457441;28;20044;-80
2023/03/08 17:19:51;;;;;;;15.82;8.32;;;;;;;0.52;82.24;98233.59;10443870;28;20483;-80
2023/03/08 17:24:54;;;;;;;17.42;9.52;;;;;;;0.57;82.43;98230.59;10416426;28;20053;-81
2023/03/08 17:29:59;;;;;;;15.73;9.25;;;;;;;0.61;82.78;98237.34;10436210;28;20625;-81
2023/03/08 17:35:04;;;;;;;18.33;10.23;;;;;;;0.66;82.95;98222.00;10432389;28;20052;-80
2023/03/08 17:40:09;;;;;;;15.35;9.73;;;;;;;0.65;82.65;98224.75;10424952;28;20051;-81
2023/03/08 17:45:12;;;;;;;16.67;10.30;;;;;;;0.66;83.09;98211.44;10429158;28;20182;-81
2023/03/08 17:50:17;;;;;;;16.65;10.93;;;;;;;0.56;82.74;98197.22;10439434;28;20049;-81
2023/03/08 17:55:20;;;;;;;17.65;9.60;;;;;;;0.39;82.83;98203.75;10431412;28;20111;-79
2023/03/08 18:00:23;;;;;;;18.98;11.18;;;;;;;0.51;82.75;98202.00;10427368;28;20048;-78
2023/03/08 18:05:28;;;;;;;19.13;10.80;;;;;;;0.51;82.67;98202.84;10424855;28;20087;-79
2023/03/08 18:10:30;;;;;;;18.75;10.82;;;;;;;0.52;82.63;98212.47;10426711;28;20071;-81
2023/03/08 18:15:33;;;;;;;18.88;11.20;;;;;;;0.50;82.76;98218.81;10440137;28;20085;-80
2023/03/08 18:20:37;;;;;;;20.85;12.10;;;;;;;0.46;82.77;98206.78;10432314;28;20045;-80
2023/03/08 18:25:40;;;;;;;23.25;12.00;;;;;;;0.37;82.68;98197.75;10430637;28;20050;-78
2023/03/08 18:30:43;;;;;;;21.75;11.70;;;;;;;0.42;82.31;98202.69;10433294;28;20051;-79
2023/03/08 18:35:55;;;;;;;20.13;12.68;;;;;;;0.43;82.61;98205.19;10434719;28;20053;-80
2023/03/08 18:40:58;;;;;;;19.90;12.35;;;;;;;0.46;82.66;98190.94;10427171;28;20059;-80
2023/03/08 18:46:01;;;;;;;21.73;12.05;;;;;;;0.45;82.41;98187.44;10432913;28;20057;-79
2023/03/08 18:51:06;;;;;;;20.95;12.73;;;;;;;0.49;82.41;98194.19;10442519;28;20135;-81
2023/03/08 18:56:09;;;;;;;22.70;12.88;;;;;;;0.53;82.38;98200.09;10424257;28;20570;-80
2023/03/08 19:01:14;;;;;;;24.75;14.85;;;;;;;0.43;82.63;98194.63;10431478;28;20063;-79
2023/03/08 19:06:18;;;;;;;23.17;13.70;;;;;;;0.53;82.48;98197.44;10432500;28;20154;-79
2023/03/08 19:11:23;;;;;;;29.27;17.25;;;;;;;0.58;82.51;98196.16;10423630;28;20052;-79
2023/03/08 19:16:28;;;;;;;31.63;17.52;;;;;;;0.61;82.53;98201.19;10445517;28;21203;-80
2023/03/08 19:21:34;;;;;;;31.00;16.80;;;;;;;0.58;82.72;98198.78;10442778;28;20063;-79
2023/03/08 19:26:39;;;;;;;28.55;16.42;;;;;;;0.62;82.18;98194.13;10449457;28;20059;-79
2023/03/08 19:31:44;;;;;;;32.72;17.17;;;;;;;0.66;82.44;98192.06;10442016;28;20482;-80
2023/03/08 19:36:48;;;;;;;32.88;18.17;;;;;;;0.64;82.33;98178.16;10436621;28;20055;-79
2023/03/08 19:41:53;;;;;;;33.58;17.63;;;;;;;0.63;82.29;98181.75;10443290;28;20170;-79
2023/03/08 19:46:57;;;;;;;32.47;17.42;;;;;;;0.61;82.43;98182.72;10451722;28;20100;-79
2023/03/08 19:52:04;;;;;;;31.55;17.85;;;;;;;0.56;82.29;98174.28;10438889;28;21482;-79
2023/03/08 19:57:07;;;;;;;32.53;17.30;;;;;;;0.56;82.70;98174.28;10445660;28;20503;-78
2023/03/08 20:02:12;;;;;;;35.00;18.77;;;;;;;0.60;82.44;98185.44;10442412;28;20053;-79
2023/03/08 20:07:20;;;;;;;35.33;17.85;;;;;;;0.67;82.68;98186.69;10442880;28;20059;-79
2023/03/08 20:12:22;;;;;;;36.70;19.10;;;;;;;0.69;82.97;98174.22;10434704;28;20056;-78
2023/03/08 20:17:26;;;;;;;34.30;19.15;;;;;;;0.69;82.62;98181.31;10445706;28;20049;-78
2023/03/08 20:22:30;;;;;;;34.40;18.08;;;;;;;0.67;82.42;98180.56;10442400;28;20052;-79
2023/03/08 20:27:33;;;;;;;40.95;20.45;;;;;;;0.69;82.60;98187.41;10443399;28;20127;-79
2023/03/08 20:32:38;;;;;;;40.00;20.98;;;;;;;0.64;82.61;98186.91;10443865;28;20048;-78
2023/03/08 20:37:42;;;;;;;36.17;19.00;;;;;;;0.68;82.53;98179.59;10447749;28;20045;-79
2023/03/08 20:42:45;;;;;;;34.95;19.85;;;;;;;0.72;82.66;98181.06;10442168;28;20089;-79
2023/03/08 20:47:48;;;;;;;34.50;18.45;;;;;;;0.75;82.75;98173.75;10437176;28;20082;-79
2023/03/08 20:52:52;;;;;;;38.67;17.75;;;;;;;0.71;82.40;98174.91;10427372;28;20058;-79
2023/03/08 20:57:55;;;;;;;35.58;18.45;;;;;;;0.69;82.62;98168.09;10440464;28;20701;-79
2023/03/08 21:02:58;;;;;;;35.45;18.58;;;;;;;0.72;82.54;98152.84;10428333;28;20041;-80
2023/03/08 21:08:03;;;;;;;34.13;18.08;;;;;;;0.73;82.36;98141.28;10437957;28;20049;-79
2023/03/08 21:13:06;;;;;;;34.22;18.40;;;;;;;0.78;82.35;98138.31;10431439;28;20052;-79
2023/03/08 21:18:09;;;;;;;34.33;19.60;;;;;;;0.77;82.27;98131.34;10423225;28;20415;-78
2023/03/08 21:23:15;;;;;;;36.03;18.77;;;;;;;0.71;82.40;98123.88;10442194;28;20080;-79
2023/03/08 21:28:18;;;;;;;34.85;18.08;;;;;;;0.75;82.46;98123.53;10417078;28;20132;-79
2023/03/08 21:33:21;;;;;;;35.03;18.38;;;;;;;0.79;82.36;98122.31;10447458;28;20079;-80
2023/03/08 21:38:25;;;;;;;35.08;18.52;;;;;;;0.77;82.14;98126.06;10441195;28;20049;-80
2023/03/08 21:43:27;;;;;;;34.63;18.10;;;;;;;0.80;82.12;98117.91;10435273;28;20717;-79
2023/03/08 21:48:30;;;;;;;34.70;18.90;;;;;;;0.81;82.31;98109.84;10434952;28;20174;-79
2023/03/08 21:53:35;;;;;;;35.47;18.25;;;;;;;0.84;82.29;98114.88;10433380;28;20043;-79
2023/03/08 21:58:38;;;;;;;39.60;19.58;;;;;;;0.87;82.84;98087.38;10434059;28;21185;-79
2023/03/08 22:03:41;;;;;;;37.20;18.13;;;;;;;0.91;82.51;98088.00;10432992;28;20045;-80
2023/03/08 22:08:45;;;;;;;40.53;20.65;;;;;;;0.90;82.45;98078.38;10343647;23;20077;-80
2023/03/08 22:13:50;;;;;;;35.13;18.88;;;;;;;0.82;82.06;98071.03;10293380;28;20050;-79
2023/03/08 22:18:53;;;;;;;38.53;19.65;;;;;;;0.69;81.78;98065.88;10281723;28;20089;-79
2023/03/08 22:23:59;;;;;;;37.88;19.10;;;;;;;0.69;81.68;98063.22;10286894;28;20039;-79
2023/03/08 22:29:02;;;;;;;42.47;19.80;;;;;;;0.61;81.74;98060.34;10297163;28;20046;-79
2023/03/08 22:34:06;;;;;;;40.08;19.98;;;;;;;0.52;82.03;98056.59;10281084;28;20538;-79
2023/03/08 22:39:11;;;;;;;39.15;19.95;;;;;;;0.51;82.21;98054.91;10294658;28;20046;-78
2023/03/08 22:44:15;;;;;;;49.75;21.77;;;;;;;0.51;82.18;98064.63;10278122;28;20055;-79
2023/03/08 22:49:18;;;;;;;43.67;20.60;;;;;;;0.52;82.35;98053.97;10304918;28;20047;-79
2023/03/08 22:54:23;;;;;;;45.70;21.17;;;;;;;0.51;82.69;98033.78;10291848;28;20075;-79
2023/03/08 22:59:26;;;;;;;48.03;21.67;;;;;;;0.50;82.67;98047.94;10309423;28;20050;-79
2023/03/08 23:04:29;;;;;;;47.65;22.13;;;;;;;0.49;82.93;98035.69;10299343;28;20043;-80
2023/03/08 23:09:34;;;;;;;52.70;24.20;;;;;;;0.49;83.04;98040.97;10317558;28;20053;-78
2023/03/08 23:14:37;;;;;;;52.33;23.10;;;;;;;0.45;82.81;98054.56;10315819;28;20055;-80
2023/03/08 23:19:43;;;;;;;47.97;21.70;;;;;;;0.43;83.20;98056.47;10302472;28;20062;-79
2023/03/08 23:24:48;;;;;;;49.47;22.17;;;;;;;0.39;82.98;98042.66;10302540;28;20085;-79
2023/03/08 23:29:51;;;;;;;50.20;22.20;;;;;;;0.41;83.14;98038.06;10311340;28;20050;-79
2023/03/08 23:48:11;;;;;;;48.03;21.70;;;;;;;0.51;83.60;98009.16;10381095;28;20133;-79
2023/03/08 23:53:14;;;;;;;49.20;21.30;;;;;;;0.55;83.59;98000.03;10396940;28;20050;-79
2023/03/08 23:58:17;;;;;;;46.53;21.42;;;;;;;0.60;83.90;97989.94;10403187;28;20046;-78
